createdAt,value
2018-08-03T05:54:10.950Z,11.00
2018-08-03T05:55:10.832Z,19.40
2018-08-03T05:56:10.829Z,19.40
2018-08-03T05:57:10.874Z,17.70
2018-08-03T05:58:10.829Z,19.40
2018-08-03T05:59:10.863Z,17.40
2018-08-03T06:00:10.891Z,19.30
2018-08-03T06:01:11.002Z,19.00
2018-08-03T06:02:12.945Z,17.90
2018-08-03T06:03:11.035Z,17.40
2018-08-03T06:04:10.746Z,19.90
2018-08-03T06:05:10.951Z,17.00
2018-08-03T06:06:10.895Z,20.20
2018-08-03T06:07:10.884Z,17.30
2018-08-03T06:08:10.914Z,16.80
2018-08-03T06:09:10.910Z,16.20
2018-08-03T06:10:10.844Z,13.70
2018-08-03T06:11:10.856Z,17.20
2018-08-03T06:13:46.626Z,12.50
2018-08-03T06:15:56.625Z,11.80
2018-08-03T06:18:12.853Z,20.90
2018-08-03T06:21:07.297Z,13.70
2018-08-03T06:21:44.376Z,16.10
2018-08-03T06:22:44.341Z,15.30
2018-08-03T06:23:44.465Z,19.50
2018-08-03T06:24:44.333Z,14.00
2018-08-03T06:25:44.353Z,15.20
2018-08-03T06:26:46.157Z,16.50
2018-08-03T06:27:44.233Z,13.00
2018-08-03T06:28:44.036Z,17.30
2018-08-03T06:29:44.286Z,18.10
2018-08-03T06:30:44.037Z,17.70
2018-08-03T06:31:51.339Z,17.20
2018-08-03T06:32:44.539Z,17.20
2018-08-03T06:33:44.280Z,17.30
2018-08-03T06:34:43.997Z,13.50
2018-08-03T06:35:44.108Z,15.40
2018-08-03T06:36:44.045Z,15.30
2018-08-03T06:37:44.563Z,16.10
2018-08-03T06:38:43.927Z,14.70
2018-08-03T06:39:43.938Z,15.80
2018-08-03T06:40:43.929Z,17.80
2018-08-03T06:41:43.911Z,16.50
2018-08-03T06:42:43.900Z,15.10
2018-08-03T06:43:44.025Z,14.10
2018-08-03T06:44:43.873Z,15.60
2018-08-03T06:45:43.858Z,16.70
2018-08-03T06:46:43.842Z,15.40
2018-08-03T06:47:43.839Z,17.10
2018-08-03T06:48:43.835Z,15.30
2018-08-03T06:49:43.863Z,14.20
2018-08-03T06:50:43.819Z,15.20
2018-08-03T06:51:43.824Z,14.80
2018-08-03T06:52:43.781Z,14.60
2018-08-03T06:53:43.921Z,16.10
2018-08-03T06:54:44.055Z,14.50
2018-08-03T06:55:43.811Z,15.80
2018-08-03T06:56:43.908Z,16.30
2018-08-03T06:57:43.893Z,15.70
2018-08-03T12:39:06.334Z,12.30
2018-08-03T12:40:06.083Z,9.40
2018-08-03T12:41:06.104Z,8.10
2018-08-03T12:42:06.076Z,9.20
2018-08-03T12:43:06.067Z,8.00
2018-08-03T12:44:06.273Z,8.20
2018-08-03T12:45:06.218Z,8.50
2018-08-03T12:46:06.313Z,7.90
2018-08-03T12:47:06.217Z,7.90
2018-08-03T12:48:06.215Z,8.10
2018-08-03T12:49:06.206Z,8.40
2018-08-03T12:50:06.276Z,8.90
2018-08-03T12:51:06.195Z,8.70
2018-08-03T12:52:06.182Z,8.90
2018-08-03T12:53:06.164Z,9.00
2018-08-03T12:54:06.001Z,8.40
2018-08-03T12:55:06.146Z,8.30
2018-08-03T12:56:06.205Z,8.00
2018-08-03T12:57:06.190Z,8.10
2018-08-03T12:58:06.180Z,7.60
2018-08-03T12:59:05.994Z,8.30
2018-08-03T13:00:06.117Z,7.30
2018-08-03T13:01:06.172Z,8.00
2018-08-03T13:02:06.181Z,7.80
2018-08-03T13:03:05.922Z,7.00
2018-08-03T13:04:06.081Z,7.20
2018-08-03T13:05:06.107Z,7.60
2018-08-03T13:06:06.074Z,8.00
2018-08-03T13:07:06.008Z,7.50
2018-08-03T13:08:06.169Z,7.30
2018-08-03T13:09:05.903Z,8.40
2018-08-03T13:10:05.905Z,8.10
2018-08-03T13:11:06.045Z,7.30
2018-08-03T13:12:06.022Z,7.30
2018-08-03T13:13:06.143Z,9.90
2018-08-03T13:14:06.009Z,7.20
2018-08-03T13:15:05.999Z,8.00
2018-08-03T13:16:05.988Z,7.20
2018-08-03T13:17:06.008Z,8.20
2018-08-03T13:18:06.000Z,7.50
2018-08-03T13:19:06.020Z,7.60
2018-08-03T13:20:05.973Z,8.50
2018-08-03T13:21:05.975Z,7.10
2018-08-03T13:22:05.948Z,7.30
2018-08-03T13:23:05.937Z,7.10
2018-08-03T13:24:06.131Z,7.00
2018-08-03T13:25:05.979Z,6.20
2018-08-03T13:26:05.943Z,6.90
2018-08-03T13:27:06.048Z,6.70
2018-08-03T13:28:05.754Z,6.80
2018-08-03T13:29:05.750Z,6.20
2018-08-03T13:30:06.108Z,9.00
2018-08-03T21:51:36.855Z,9.10
2018-08-03T21:52:36.735Z,16.30
2018-08-03T21:53:36.614Z,11.40
2018-08-03T21:54:36.623Z,16.10
2018-08-03T21:55:36.660Z,9.00
2018-08-03T21:56:36.782Z,9.60
2018-08-03T21:57:36.716Z,11.70
2018-08-03T21:58:36.990Z,9.30
2018-08-03T21:59:36.672Z,11.90
2018-08-03T22:00:36.942Z,9.70
2018-08-03T22:01:37.012Z,9.90
2018-08-03T22:02:36.866Z,9.30
2018-08-03T22:03:37.293Z,11.10
2018-08-03T22:04:36.545Z,9.40
2018-08-03T22:05:36.540Z,12.70
2018-08-03T22:06:36.546Z,12.30
2018-08-03T22:07:36.691Z,9.00
2018-08-03T22:08:36.634Z,13.60
2018-08-03T22:09:36.630Z,9.20
2018-08-03T22:10:36.531Z,12.80
2018-08-03T22:11:36.483Z,8.20
2018-08-03T22:12:36.612Z,11.20
2018-08-03T22:13:36.742Z,10.50
2018-08-03T22:14:36.444Z,12.60
2018-08-03T22:15:36.793Z,14.80
2018-08-03T22:16:36.575Z,13.20
2018-08-03T22:17:37.023Z,9.50
2018-08-03T22:18:36.576Z,9.00
2018-08-03T22:19:36.568Z,9.70
2018-08-03T22:20:37.806Z,12.00
2018-08-03T22:21:36.475Z,7.00
2018-08-03T22:23:28.130Z,6.60
2018-08-03T22:24:28.089Z,9.00
2018-08-03T22:25:27.929Z,16.90
2018-08-03T22:26:27.904Z,10.20
2018-08-03T22:27:27.881Z,8.90
2018-08-03T22:28:28.094Z,10.60
2018-08-03T22:29:28.029Z,11.60
2018-08-03T22:30:28.068Z,12.40
2018-08-03T22:31:28.014Z,13.20
2018-08-03T22:32:27.940Z,14.20
2018-08-03T22:33:27.991Z,11.20
2018-08-03T22:34:28.031Z,10.40
2018-08-03T22:35:27.981Z,12.90
2018-08-03T22:36:27.998Z,8.90
2018-08-03T22:37:27.954Z,9.00
2018-08-03T22:38:27.936Z,11.80
2018-08-03T22:39:27.935Z,14.20
2018-08-03T22:40:27.927Z,9.90
2018-08-03T22:41:28.027Z,9.10
2018-08-03T22:42:27.909Z,9.90
2018-08-03T22:43:27.903Z,7.90
2018-08-03T22:44:27.897Z,9.00
2018-08-03T22:45:27.932Z,11.50
2018-08-03T22:46:27.857Z,15.20
2018-08-03T22:47:27.882Z,12.40
2018-08-03T23:03:14.438Z,10.00
2018-08-03T23:04:14.669Z,13.30
2018-08-03T23:05:14.552Z,14.80
2018-08-03T23:06:14.538Z,12.70
2018-08-03T23:07:14.411Z,12.20
2018-08-03T23:08:14.474Z,12.30
2018-08-03T23:09:14.339Z,11.20
2018-08-03T23:10:14.418Z,13.40
2018-08-03T23:11:14.345Z,13.90
2018-08-03T23:12:14.316Z,16.20
2018-08-03T23:13:14.292Z,12.80
2018-08-03T23:14:14.294Z,11.80
2018-08-03T23:15:14.294Z,10.60
2018-08-03T23:16:14.388Z,11.00
2018-08-03T23:17:14.419Z,9.70
2018-08-03T23:18:14.247Z,9.20
2018-08-03T23:19:14.232Z,9.40
2018-08-03T23:20:14.390Z,9.20
2018-08-03T23:21:14.573Z,12.80
2018-08-03T23:22:14.368Z,15.60
2018-08-03T23:23:14.349Z,11.20
2018-08-03T23:24:14.339Z,12.40
2018-08-03T23:25:14.336Z,10.40
2018-08-03T23:26:14.217Z,10.00
2018-08-03T23:27:14.359Z,10.10
2018-08-03T23:28:14.300Z,10.90
2018-08-03T23:29:14.294Z,10.60
2018-08-03T23:30:14.284Z,12.40
2018-08-03T23:31:14.133Z,9.70
2018-08-03T23:32:14.352Z,11.80
2018-08-03T23:33:14.248Z,15.60
2018-08-03T23:34:14.241Z,12.50
2018-08-03T23:35:14.231Z,9.60
2018-08-03T23:36:14.218Z,13.60
2018-08-03T23:37:14.205Z,9.80
2018-08-03T23:38:14.236Z,14.10
2018-08-03T23:39:14.191Z,11.80
2018-08-03T23:40:14.176Z,9.80
2018-08-03T23:41:14.165Z,13.90
2018-08-03T23:42:14.152Z,10.20
2018-08-03T23:43:14.180Z,8.90
2018-08-03T23:44:14.128Z,10.40
2018-08-03T23:45:14.116Z,11.10
2018-08-03T23:46:14.109Z,13.30
2018-08-03T23:47:14.102Z,10.70
2018-08-03T23:48:14.095Z,11.60
2018-08-03T23:49:14.133Z,9.80
2018-08-03T23:50:13.943Z,11.20
2018-08-03T23:51:14.056Z,11.30
2018-08-03T23:52:14.046Z,10.00
2018-08-03T23:53:14.029Z,10.50
2018-08-03T23:54:14.113Z,10.00
2018-08-03T23:55:14.016Z,10.50
2018-08-03T23:56:14.005Z,11.60
2018-08-03T23:57:13.993Z,8.60
2018-08-03T23:58:13.986Z,9.70
2018-08-03T23:59:13.976Z,10.00
